Map

Track Data

SID SEASON NUMBER BASIN SUBBASIN NAME ISO_TIME NATURE LAT LON WMO_WIND WMO_PRES WMO_AGENCY TRACK_TYPE DIST2LAND LANDFALL IFLAG USA_AGENCY USA_ATCF_ID USA_LAT USA_LON USA_RECORD USA_STATUS USA_WIND USA_PRES USA_SSHS USA_R34_NE USA_R34_SE USA_R34_SW USA_R34_NW USA_R50_NE USA_R50_SE USA_R50_SW USA_R50_NW USA_R64_NE USA_R64_SE USA_R64_SW USA_R64_NW USA_POCI USA_ROCI USA_RMW USA_EYE TOKYO_LAT TOKYO_LON TOKYO_GRADE TOKYO_WIND TOKYO_PRES TOKYO_R50_DIR TOKYO_R50_LONG TOKYO_R50_SHORT TOKYO_R30_DIR TOKYO_R30_LONG TOKYO_R30_SHORT TOKYO_LAND CMA_LAT CMA_LON CMA_CAT CMA_WIND CMA_PRES HKO_LAT HKO_LON HKO_CAT HKO_WIND HKO_PRES NEWDELHI_LAT NEWDELHI_LON NEWDELHI_GRADE NEWDELHI_WIND NEWDELHI_PRES NEWDELHI_CI NEWDELHI_DP NEWDELHI_POCI REUNION_LAT REUNION_LON REUNION_TYPE REUNION_WIND REUNION_PRES REUNION_TNUM REUNION_CI REUNION_RMW REUNION_R34_NE REUNION_R34_SE REUNION_R34_SW REUNION_R34_NW REUNION_R50_NE REUNION_R50_SE REUNION_R50_SW REUNION_R50_NW REUNION_R64_NE REUNION_R64_SE REUNION_R64_SW REUNION_R64_NW BOM_LAT BOM_LON BOM_TYPE BOM_WIND BOM_PRES BOM_TNUM BOM_CI BOM_RMW BOM_R34_NE BOM_R34_SE BOM_R34_SW BOM_R34_NW BOM_R50_NE BOM_R50_SE BOM_R50_SW BOM_R50_NW BOM_R64_NE BOM_R64_SE BOM_R64_SW BOM_R64_NW BOM_ROCI BOM_POCI BOM_EYE BOM_POS_METHOD BOM_PRES_METHOD NADI_LAT NADI_LON NADI_CAT NADI_WIND NADI_PRES WELLINGTON_LAT WELLINGTON_LON WELLINGTON_WIND WELLINGTON_PRES DS824_LAT DS824_LON DS824_STAGE DS824_WIND DS824_PRES TD9636_LAT TD9636_LON TD9636_STAGE TD9636_WIND TD9636_PRES TD9635_LAT TD9635_LON TD9635_WIND TD9635_PRES TD9635_ROCI NEUMANN_LAT NEUMANN_LON NEUMANN_CLASS NEUMANN_WIND NEUMANN_PRES MLC_LAT MLC_LON MLC_CLASS MLC_WIND MLC_PRES USA_GUST BOM_GUST BOM_GUST_PER REUNION_GUST REUNION_GUST_PER USA_SEAHGT USA_SEARAD_NE USA_SEARAD_SE USA_SEARAD_SW USA_SEARAD_NW STORM_SPEED STORM_DIR
1984062S12131 1984 23 SI WA FERDINAND 1984-03-02 00:00:00 TS -12.0000 131.000 main 11 0 ____________O_ -1 -12.0000 131.000 TC 20 4 43
1984062S12131 1984 23 SI WA FERDINAND 1984-03-02 02:00:00 TS -11.8951 131.096 20 1004 bom main 10 10 ______O___O_P_ -1 -11.9000 131.100 20 20 1004 1.00000 -11.9000 131.100 1 -11.8901 131.092 TC 21 45 45 4 52
1984062S12131 1984 23 SI WA FERDINAND 1984-03-02 03:00:00 TS -11.8750 131.160 main 15 11 ______P___P_P_ -1 -11.8964 131.159 20 20 1003 -11.9097 131.192 1 -11.8375 131.140 TC 22 4 75
1984062S12131 1984 23 SI WA FERDINAND 1984-03-02 05:00:00 TS -11.8435 131.299 20 1003 bom main 11 11 ______O___P_P_ -1 -11.9000 131.300 20 20 1003 1.00000 -11.9229 131.371 1 -11.7415 131.243 TC 24 45 45 4 82
1984062S12131 1984 23 SI WA FERDINAND 1984-03-02 06:00:00 TS -11.8444 131.383 main 15 15 ______P___P_O_ -1 -11.9099 131.392 20 20 1003 -11.9232 131.456 1 -11.7000 131.300 TC 25 5 83
1984062S12131 1984 23 SI WA FERDINAND 1984-03-02 08:00:00 TS -11.8115 131.546 20 1003 bom main 22 24 ______O___P_P_ -1 -11.9000 131.600 20 20 1003 1.00000 -11.9035 131.614 1 -11.6309 131.425 TC 26 45 45 5 75
1984062S12131 1984 23 SI WA FERDINAND 1984-03-02 09:00:00 TS -11.7781 131.628 main 24 24 ______P___P_P_ -1 -11.8539 131.708 20 20 1003 -11.8804 131.683 1 -11.6000 131.492 TC 27 5 64
1984062S12131 1984 23 SI WA FERDINAND 1984-03-02 10:00:00 TS -11.7385 131.702 20 1003 bom main 24 24 ______O___P_P_ -1 -11.8000 131.800 20 20 1003 1.00000 -11.8464 131.746 1 -11.5691 131.561 TC 28 45 45 5 61
1984062S12131 1984 23 SI WA FERDINAND 1984-03-02 11:00:00 TS -11.7028 131.765 main 34 34 ______P___O_P_ -1 -11.7719 131.863 20 20 1003 -11.8000 131.800 1 -11.5364 131.631 TC 29 4 56
1984062S12131 1984 23 SI WA FERDINAND 1984-03-02 12:00:00 TS -11.6645 131.814 main 34 24 ______P___P_O_ -1 -11.7533 131.898 20 20 1003 -11.7403 131.845 1 -11.5000 131.700 TC 30 4 40
1984062S12131 1984 23 SI WA FERDINAND 1984-03-02 14:00:00 TS -11.5639 131.882 20 1003 bom main 24 15 ______O___P_P_ -1 -11.7000 131.900 20 20 1003 1.00000 -11.5892 131.914 1 -11.4025 131.833 TC 30 45 45 4 29
1984062S12131 1984 23 SI WA FERDINAND 1984-03-02 15:00:00 TS -11.5020 131.905 main 15 10 ______P___P_P_ -1 -11.6532 131.873 20 21 1002 -11.5030 131.941 1 -11.3500 131.900 TC 30 4 13
1984062S12131 1984 23 SI WA FERDINAND 1984-03-02 17:00:00 TS -11.3564 131.941 25 1002 bom main 10 0 ______O___P_P_ -1 -11.5000 131.800 20 25 1002 1.50000 -11.3223 131.989 1 -11.2469 132.033 TC 30 45 45 5 14
1984062S12131 1984 23 SI WA FERDINAND 1984-03-02 18:00:00 TS -11.2682 131.961 main 0 0 ______P___P_O_ -1 -11.3716 131.770 20 25 1001 -11.2330 132.013 1 -11.2000 132.100 TC 30 6 20
1984062S12131 1984 23 SI WA FERDINAND 1984-03-02 20:00:00 TS -11.0928 132.038 25 1000 bom main 11 11 ______O___P_P_ -1 -11.1000 131.800 20 25 1000 2.00000 -11.0693 132.069 1 -11.1091 132.244 TC 30 45 45 6 31
1984062S12131 1984 23 SI WA FERDINAND 1984-03-02 21:00:00 TS -11.0256 132.109 main 22 22 ______P___P_P_ -1 -11.0067 131.907 20 25 1000 -11.0001 132.105 1 -11.0700 132.315 TC 30 6 57
1984062S12131 1984 23 SI WA FERDINAND 1984-03-02 23:00:00 TS -10.9379 132.282 25 1000 bom main 33 33 ______O___O_P_ -1 -10.9000 132.200 20 25 1000 2.00000 -10.9000 132.200 1 -11.0136 132.445 TC 30 45 45 5 67
1984062S12131 1984 23 SI WA FERDINAND 1984-03-03 00:00:00 TS -10.9215 132.364 main 35 35 ______P___P_O_ -1 -10.8733 132.308 20 25 1000 -10.8911 132.283 1 -11.0000 132.500 TC 30 5 91
1984062S12131 1984 23 SI WA FERDINAND 1984-03-03 02:00:00 TS -10.9402 132.517 25 1000 bom main 40 35 ______O___P_P_ -1 -10.9000 132.500 20 25 1000 2.00000 -10.9109 132.475 1 -11.0096 132.577 TC 30 45 45 5 103
1984062S12131 1984 23 SI WA FERDINAND 1984-03-03 03:00:00 TS -10.9734 132.594 main 35 31 ______P___P_P_ -1 -10.9563 132.595 20 26 999 -10.9364 132.580 1 -11.0275 132.607 TC 30 5 118
1984062S12131 1984 23 SI WA FERDINAND 1984-03-03 05:00:00 TS -11.0620 132.755 30 998 bom main 35 35 ______O___P_P_ -1 -11.1000 132.800 20 30 998 2.50000 -11.0104 132.799 1 -11.0754 132.666 TC 30 45 45 6 117
1984062S12131 1984 23 SI WA FERDINAND 1984-03-03 06:00:00 TS -11.0990 132.849 main 35 24 ______P___P_O_ -1 -11.1413 132.936 20 30 997 -11.0557 132.910 1 -11.1000 132.700 TC 30 6 110
1984062S12131 1984 23 SI WA FERDINAND 1984-03-03 08:00:00 TS -11.1609 133.041 30 997 bom main 24 31 ______O___P_P_ -1 -11.2000 133.200 20 30 997 2.50000 -11.1547 133.125 1 -11.1279 132.798 TC 31 45 45 6 110
1984062S12131 1984 23 SI WA FERDINAND 1984-03-03 09:00:00 TS -11.1937 133.121 main 31 31 ______P___P_P_ -1 -11.2333 133.288 20 30 997 -11.2051 133.224 1 -11.1425 132.850 TC 32 5 116
1984062S12131 1984 23 SI WA FERDINAND 1984-03-03 11:00:00 TS -11.2592 133.251 30 997 bom main 39 39 ______O___O_P_ -1 -11.3000 133.400 20 30 997 2.50000 -11.3000 133.400 1 -11.1776 132.953 TC 34 45 45 4 117
1984062S12131 1984 23 SI WA FERDINAND 1984-03-03 12:00:00 TS -11.2868 133.300 main 39 39 ______P___P_O_ -1 -11.3333 133.441 20 30 996 -11.3270 133.458 1 -11.2000 133.000 TC 35 3 127
1984062S12131 1984 23 SI WA FERDINAND 1984-03-03 14:00:00 TS -11.3474 133.373 30 996 bom main 46 39 ______O___P_P_ -1 -11.4000 133.500 20 30 996 2.50000 -11.3779 133.550 1 -11.2642 133.069 TC 40 45 45 3 132
1984062S12131 1984 23 SI WA FERDINAND 1984-03-03 15:00:00 TS -11.3785 133.406 main 39 39 ______P___P_P_ -1 -11.4333 133.533 20 33 995 -11.4022 133.586 1 -11.3000 133.100 TC 42 3 135
1984062S12131 1984 23 SI WA FERDINAND 1984-03-03 17:00:00 TS -11.4398 133.470 40 993 bom main 44 33 ______O___P_P_ -1 -11.5000 133.600 30 40 993 3.00000 -11.4497 133.645 1 -11.3697 133.164 TC 47 55 55 3 135
1984062S12131 1984 23 SI WA FERDINAND 1984-03-03 18:00:00 TS -11.4707 133.501 main 33 33 ______P___P_O_ -1 -11.5388 133.633 30 40 992 -11.4734 133.671 1 -11.4000 133.200 TC 50 3 127
1984062S12131 1984 23 SI WA FERDINAND 1984-03-03 20:00:00 TS -11.5192 133.574 40 991 bom main 35 35 ______O___P_P_ -1 -11.6000 133.700 30 40 991 3.00000 -11.5217 133.718 1 -11.4358 133.303 TC 53 55 55 2 122
1984062S12131 1984 23 SI WA FERDINAND 1984-03-03 21:00:00 TS -11.5331 133.609 main 35 22 ______P___P_P_ -1 -11.6025 133.728 30 40 991 -11.5468 133.743 1 -11.4500 133.358 TC 55 2 110
1984062S12131 1984 23 SI WA FERDINAND 1984-03-03 23:00:00 TS -11.5601 133.686 40 991 bom main 22 22 ______O___O_P_ -1 -11.6000 133.800 30 40 991 3.00000 -11.6000 133.800 2 43 -11.4803 133.459 TC 58 55 55 3 111
1984062S12131 1984 23 SI WA FERDINAND 1984-03-04 00:00:00 TS -11.5831 133.739 main 22 22 ______P___P_O_ -1 -11.6254 133.864 30 43 990 -11.6239 133.853 2 43 -11.5000 133.500 TC 60 3 119
1984062S12131 1984 23 SI WA FERDINAND 1984-03-04 02:00:00 TS -11.6420 133.839 50 988 bom main 22 15 ______O___P_P_ -1 -11.7000 134.000 30 50 988 3.50000 -11.6726 133.968 2 45 -11.5533 133.549 TC 60 69 69 3 123
1984062S12131 1984 23 SI WA FERDINAND 1984-03-04 03:00:00 TS -11.6722 133.876 main 15 15 ______P___P_P_ -1 -11.7333 134.036 30 51 986 -11.6984 134.028 2 46 -11.5850 133.565 TC 60 3 132
1984062S12131 1984 23 SI WA FERDINAND 1984-03-04 05:00:00 TS -11.7378 133.944 55 983 bom main 15 21 ______O___P_P_ -1 -11.8000 134.100 30 55 983 4.00000 -11.7551 134.145 2 48 -11.6583 133.589 TC 60 75 75 3 131
1984062S12131 1984 23 SI WA FERDINAND 1984-03-04 06:00:00 TS -11.7734 133.988 main 21 11 ______P___P_O_ -1 -11.8333 134.164 30 56 982 -11.7870 134.200 2 49 -11.7000 133.600 TC 60 983 3 131
1984062S12131 1984 23 SI WA FERDINAND 1984-03-04 08:00:00 TS -11.8507 134.078 60 980 bom main 11 11 ______O___P_P_ -1 -11.9000 134.300 30 60 980 4.00000 -11.8601 134.299 2 51 -11.7921 133.633 TC 54 84 84 3 134
1984062S12131 1984 23 SI WA FERDINAND 1984-03-04 09:00:00 TS -11.8909 134.111 main 11 0 ______P___P_P_ -1 -11.9279 134.341 30 60 981 -11.9022 134.340 2 52 -11.8425 133.650 TC 52 3 149
1984062S12131 1984 23 SI WA FERDINAND 1984-03-04 11:00:00 TS -11.9825 134.161 60 984 bom main 0 0 ______O___O_P_ -1 -12.0000 134.400 30 60 984 4.00000 -12.0000 134.400 2 54 -11.9474 133.683 TC 47 84 84 3 153
1984062S12131 1984 23 SI WA FERDINAND 1984-03-04 12:00:00 TS -12.0366 134.183 main 0 0 ______P___P_O_ -1 -12.0533 134.433 30 56 985 -12.0564 134.417 2 -12.0000 133.700 TC 45 4 164
1984062S12131 1984 23 SI WA FERDINAND 1984-03-04 14:00:00 TS -12.1611 134.217 50 990 bom main 0 0 ______O___P_P_ -1 -12.2000 134.500 30 50 990 -12.1834 134.425 2 -12.1000 133.728 TC 39 69 69 4 163
1984062S12131 1984 23 SI WA FERDINAND 1984-03-04 15:00:00 TS -12.2335 134.237 main 0 0 ______P___P_P_ -1 -12.2975 134.550 30 46 991 -12.2530 134.418 2 -12.1500 133.743 TC 37 5 169
1984062S12131 1984 23 SI WA FERDINAND 1984-03-04 17:00:00 TS -12.3842 134.254 40 995 bom main 0 0 ______O___P_P_ -1 -12.5000 134.600 30 40 995 -12.4025 134.385 2 -12.2500 133.778 TC 32 55 55 4 0
1984062S12131 1984 23 SI WA FERDINAND 1984-03-04 18:00:00 TS -12.4520 134.240 main 0 0 ______P___P_O_ -1 -12.5746 134.557 30 36 995 -12.4814 134.362 2 -12.3000 133.800 TC 30 4 205
1984062S12131 1984 23 SI WA FERDINAND 1984-03-04 20:00:00 TS -12.5592 134.176 30 997 bom main 0 0 ______O___P_P_ -1 -12.7000 134.400 20 30 997 -12.6453 134.303 2 -12.3891 133.913 TC 26 45 45 3 216
1984062S12131 1984 23 SI WA FERDINAND 1984-03-04 21:00:00 TS -12.5909 134.133 main 0 0 ______P___P_P_ -1 -12.7642 134.326 20 26 997 -12.7295 134.270 2 -12.4349 133.967 TC 25 3 223
1984062S12131 1984 23 SI WA FERDINAND 1984-03-04 23:00:00 TS -12.6590 134.081 20 1000 bom main 0 0 ______O___O_P_ -1 -12.9000 134.200 20 20 1000 -12.9000 134.200 1 -12.5385 134.021 TC 21 45 45 3 266
1984062S12131 1984 23 SI WA FERDINAND 1984-03-05 00:00:00 TS -12.6000 134.000 main 0 0 ____________O_ -1 20 1 -12.6000 134.000 TC 20 6 247
1984062S12131 1984 23 SI WA FERDINAND 1984-03-05 03:00:00 TS -12.8276 133.675 main 0 0 ____________P_ -1 1 -12.8276 133.675 TC 20 9 237
1984062S12131 1984 23 SI WA FERDINAND 1984-03-05 06:00:00 TS -13.1000 133.200 main 0 0 ____________O_ -1 1 -13.1000 133.200 TC 20 10 236
1984062S12131 1984 23 SI WA FERDINAND 1984-03-05 09:00:00 TS -13.3924 132.800 main 0 0 ____________P_ -1 1 -13.3924 132.800 TC 17 10 232
1984062S12131 1984 23 SI WA FERDINAND 1984-03-05 12:00:00 TS -13.7000 132.400 main 0 0 ____________O_ -1 -13.7000 132.400 TC 15 10 232
1984062S12131 1984 23 SI WA FERDINAND 1984-03-05 15:00:00 TS -14.0000 131.992 main 0 0 ____________P_ -1 -14.0000 131.992 TC 15 10 232
1984062S12131 1984 23 SI WA FERDINAND 1984-03-05 18:00:00 TS -14.3000 131.600 main 0 0 ____________O_ -1 -14.3000 131.600 TC 15 9 231
1984062S12131 1984 23 SI WA FERDINAND 1984-03-05 21:00:00 TS -14.6001 131.240 main 0 0 ____________P_ -1 -14.6001 131.240 TC 15 9 228
1984062S12131 1984 23 SI WA FERDINAND 1984-03-06 00:00:00 TS -14.9000 130.900 main 0 ____________O_ -1 -14.9000 130.900 TC 15 9 228

About IBTrACS Database

This database is a web-friendly format of International Best Track Archive for Climate Stewardship (IBTrACS), a global best track data archive curated by NOAA dating back to 1842.

Updated: 2021-10-21